sensor_id;sensor_type;location;lat;lon;timestamp;P1;durP1;ratioP1;P2;durP2;ratioP2
9438;SDS011;5176;42.622;25.386;2023-04-28T20:00:56;13.30;;;11.47;;
9438;SDS011;5176;42.622;25.386;2023-04-28T20:03:25;11.97;;;9.70;;
9438;SDS011;5176;42.622;25.386;2023-04-28T20:05:56;12.47;;;9.80;;
9438;SDS011;5176;42.622;25.386;2023-04-28T20:08:24;12.50;;;9.83;;
9438;SDS011;5176;42.622;25.386;2023-04-28T20:10:53;10.87;;;8.90;;
9438;SDS011;5176;42.622;25.386;2023-04-28T20:13:22;15.03;;;10.07;;
9438;SDS011;5176;42.622;25.386;2023-04-28T20:15:51;16.77;;;12.33;;
9438;SDS011;5176;42.622;25.386;2023-04-28T20:18:21;20.10;;;12.27;;
9438;SDS011;5176;42.622;25.386;2023-04-28T20:20:51;20.17;;;12.90;;
9438;SDS011;5176;42.622;25.386;2023-04-28T20:23:19;15.23;;;11.87;;
9438;SDS011;5176;42.622;25.386;2023-04-28T20:25:48;27.70;;;19.27;;
9438;SDS011;5176;42.622;25.386;2023-04-28T20:28:17;13.53;;;10.70;;
9438;SDS011;5176;42.622;25.386;2023-04-28T20:30:45;11.97;;;9.63;;
9438;SDS011;5176;42.622;25.386;2023-04-28T20:33:14;18.90;;;10.67;;
9438;SDS011;5176;42.622;25.386;2023-04-28T20:35:46;24.87;;;11.53;;
9438;SDS011;5176;42.622;25.386;2023-04-28T20:38:14;14.53;;;9.53;;
9438;SDS011;5176;42.622;25.386;2023-04-28T20:40:45;10.47;;;8.57;;
9438;SDS011;5176;42.622;25.386;2023-04-28T20:43:13;13.60;;;9.63;;
9438;SDS011;5176;42.622;25.386;2023-04-28T20:45:42;10.23;;;9.20;;
9438;SDS011;5176;42.622;25.386;2023-04-28T20:48:11;8.93;;;7.97;;
9438;SDS011;5176;42.622;25.386;2023-04-28T20:50:40;13.53;;;7.50;;
9438;SDS011;5176;42.622;25.386;2023-04-28T20:53:11;9.20;;;7.50;;
9438;SDS011;5176;42.622;25.386;2023-04-28T20:55:40;10.37;;;7.07;;
9438;SDS011;5176;42.622;25.386;2023-04-28T20:58:09;9.73;;;6.17;;
9438;SDS011;5176;42.622;25.386;2023-04-28T21:00:38;7.37;;;6.60;;
9438;SDS011;5176;42.622;25.386;2023-04-28T21:03:08;11.10;;;7.63;;
9438;SDS011;5176;42.622;25.386;2023-04-28T21:05:40;8.17;;;6.70;;
9438;SDS011;5176;42.622;25.386;2023-04-28T21:08:13;7.90;;;7.10;;
9438;SDS011;5176;42.622;25.386;2023-04-28T21:10:42;7.53;;;6.67;;
9438;SDS011;5176;42.622;25.386;2023-04-28T21:13:11;8.90;;;7.70;;
9438;SDS011;5176;42.622;25.386;2023-04-28T21:15:40;8.23;;;7.23;;
9438;SDS011;5176;42.622;25.386;2023-04-28T21:18:08;8.73;;;7.00;;
9438;SDS011;5176;42.622;25.386;2023-04-28T21:20:37;9.83;;;6.93;;
9438;SDS011;5176;42.622;25.386;2023-04-28T21:23:06;14.47;;;7.20;;
9438;SDS011;5176;42.622;25.386;2023-04-28T21:25:37;8.83;;;6.97;;
9438;SDS011;5176;42.622;25.386;2023-04-28T21:28:07;13.10;;;7.97;;
9438;SDS011;5176;42.622;25.386;2023-04-28T21:30:36;11.73;;;7.07;;
9438;SDS011;5176;42.622;25.386;2023-04-28T21:33:05;11.23;;;6.90;;
9438;SDS011;5176;42.622;25.386;2023-04-28T21:35:34;10.23;;;7.40;;
9438;SDS011;5176;42.622;25.386;2023-04-28T21:38:03;8.27;;;7.00;;
9438;SDS011;5176;42.622;25.386;2023-04-28T21:40:31;9.97;;;7.23;;
9438;SDS011;5176;42.622;25.386;2023-04-28T21:43:02;10.03;;;6.13;;
9438;SDS011;5176;42.622;25.386;2023-04-28T21:45:31;8.17;;;6.60;;
9438;SDS011;5176;42.622;25.386;2023-04-28T21:48:00;7.90;;;6.80;;
9438;SDS011;5176;42.622;25.386;2023-04-28T21:50:29;7.47;;;6.50;;
9438;SDS011;5176;42.622;25.386;2023-04-28T21:52:58;8.70;;;6.70;;
9438;SDS011;5176;42.622;25.386;2023-04-28T21:55:27;8.57;;;6.67;;
9438;SDS011;5176;42.622;25.386;2023-04-28T21:57:56;8.13;;;6.70;;
9438;SDS011;5176;42.622;25.386;2023-04-28T22:00:27;9.17;;;8.10;;
9438;SDS011;5176;42.622;25.386;2023-04-28T22:02:56;11.07;;;7.97;;
9438;SDS011;5176;42.622;25.386;2023-04-28T22:05:25;11.80;;;7.43;;
9438;SDS011;5176;42.622;25.386;2023-04-28T22:07:54;7.63;;;5.60;;
9438;SDS011;5176;42.622;25.386;2023-04-28T22:10:23;5.97;;;5.37;;
9438;SDS011;5176;42.622;25.386;2023-04-28T22:12:52;6.47;;;5.83;;
9438;SDS011;5176;42.622;25.386;2023-04-28T22:15:22;7.03;;;5.97;;
9438;SDS011;5176;42.622;25.386;2023-04-28T22:17:52;11.07;;;6.37;;
9438;SDS011;5176;42.622;25.386;2023-04-28T22:20:21;7.13;;;6.43;;
9438;SDS011;5176;42.622;25.386;2023-04-28T22:22:50;7.07;;;6.07;;
9438;SDS011;5176;42.622;25.386;2023-04-28T22:25:19;8.73;;;7.83;;
9438;SDS011;5176;42.622;25.386;2023-04-28T22:27:48;14.20;;;10.63;;
9438;SDS011;5176;42.622;25.386;2023-04-28T22:30:16;11.23;;;8.37;;
9438;SDS011;5176;42.622;25.386;2023-04-28T22:32:45;10.33;;;7.60;;
9438;SDS011;5176;42.622;25.386;2023-04-28T22:35:15;11.67;;;6.30;;
9438;SDS011;5176;42.622;25.386;2023-04-28T22:37:44;7.67;;;5.70;;
9438;SDS011;5176;42.622;25.386;2023-04-28T22:40:13;8.47;;;6.37;;
9438;SDS011;5176;42.622;25.386;2023-04-28T22:42:42;10.03;;;7.57;;
9438;SDS011;5176;42.622;25.386;2023-04-28T22:45:10;9.93;;;8.67;;
9438;SDS011;5176;42.622;25.386;2023-04-28T22:47:40;10.37;;;8.77;;
9438;SDS011;5176;42.622;25.386;2023-04-28T22:50:09;11.67;;;8.30;;
9438;SDS011;5176;42.622;25.386;2023-04-28T22:52:40;9.77;;;7.63;;
9438;SDS011;5176;42.622;25.386;2023-04-28T22:55:09;12.17;;;9.17;;
9438;SDS011;5176;42.622;25.386;2023-04-28T22:57:38;13.53;;;8.80;;
9438;SDS011;5176;42.622;25.386;2023-04-28T23:00:08;9.97;;;8.50;;
9438;SDS011;5176;42.622;25.386;2023-04-28T23:02:37;11.83;;;8.97;;
9438;SDS011;5176;42.622;25.386;2023-04-28T23:05:05;11.83;;;8.73;;
9438;SDS011;5176;42.622;25.386;2023-04-28T23:07:35;12.70;;;9.10;;
9438;SDS011;5176;42.622;25.386;2023-04-28T23:10:06;11.27;;;9.23;;
9438;SDS011;5176;42.622;25.386;2023-04-28T23:12:36;10.10;;;9.00;;
9438;SDS011;5176;42.622;25.386;2023-04-28T23:15:05;12.73;;;8.50;;
9438;SDS011;5176;42.622;25.386;2023-04-28T23:17:34;8.90;;;8.00;;
9438;SDS011;5176;42.622;25.386;2023-04-28T23:20:04;8.80;;;7.00;;
9438;SDS011;5176;42.622;25.386;2023-04-28T23:22:34;9.50;;;7.40;;
9438;SDS011;5176;42.622;25.386;2023-04-28T23:25:02;8.00;;;6.90;;
9438;SDS011;5176;42.622;25.386;2023-04-28T23:27:33;6.70;;;6.00;;
9438;SDS011;5176;42.622;25.386;2023-04-28T23:30:02;7.77;;;6.23;;
9438;SDS011;5176;42.622;25.386;2023-04-28T23:32:32;7.83;;;6.27;;
9438;SDS011;5176;42.622;25.386;2023-04-28T23:35:00;9.90;;;7.60;;
9438;SDS011;5176;42.622;25.386;2023-04-28T23:37:30;8.80;;;7.20;;
9438;SDS011;5176;42.622;25.386;2023-04-28T23:39:58;10.40;;;7.60;;
9438;SDS011;5176;42.622;25.386;2023-04-28T23:42:29;10.07;;;7.10;;
9438;SDS011;5176;42.622;25.386;2023-04-28T23:44:58;8.37;;;7.57;;
9438;SDS011;5176;42.622;25.386;2023-04-28T23:47:28;8.70;;;7.53;;
9438;SDS011;5176;42.622;25.386;2023-04-28T23:49:56;13.13;;;7.40;;
9438;SDS011;5176;42.622;25.386;2023-04-28T23:52:25;7.80;;;6.90;;
9438;SDS011;5176;42.622;25.386;2023-04-28T23:54:54;7.93;;;7.13;;
9438;SDS011;5176;42.622;25.386;2023-04-28T23:57:22;8.03;;;7.07;;
9438;SDS011;5176;42.622;25.386;2023-04-28T23:59:53;7.27;;;6.57;;
